createdAt,value
2023-03-11T00:00:51.078Z,55.20
2023-03-11T00:05:55.915Z,54.84
2023-03-11T00:11:01.453Z,54.99
2023-03-11T00:16:04.594Z,55.12
2023-03-11T00:21:16.956Z,55.46
2023-03-11T00:26:20.022Z,55.57
2023-03-11T00:31:23.263Z,55.35
2023-03-11T00:36:31.447Z,55.28
2023-03-11T00:41:35.272Z,55.56
2023-03-11T00:46:38.047Z,55.38
2023-03-11T00:51:43.287Z,55.32
2023-03-11T00:56:46.503Z,55.59
2023-03-11T01:01:49.771Z,55.41
2023-03-11T01:06:53.871Z,55.70
2023-03-11T01:11:56.743Z,55.91
2023-03-11T01:16:59.489Z,56.17
2023-03-11T01:22:03.628Z,56.13
2023-03-11T01:27:06.442Z,56.42
2023-03-11T01:32:09.236Z,56.59
2023-03-11T01:37:13.956Z,56.52
2023-03-11T01:42:17.025Z,56.53
2023-03-11T01:47:36.545Z,56.89
2023-03-11T01:52:42.267Z,57.12
2023-03-11T01:57:48.300Z,57.23
2023-03-11T02:02:53.793Z,57.21
2023-03-11T02:07:59.563Z,57.40
2023-03-11T02:13:06.805Z,57.59
2023-03-11T02:18:10.555Z,57.64
2023-03-11T02:23:16.835Z,57.66
2023-03-11T02:28:23.025Z,58.04
2023-03-11T02:33:30.083Z,57.95
2023-03-11T02:38:32.918Z,58.11
2023-03-11T02:43:42.867Z,58.05
2023-03-11T02:48:48.585Z,58.27
2023-03-11T02:53:53.993Z,58.47
2023-03-11T02:58:58.387Z,58.41
2023-03-11T03:04:02.233Z,58.65
2023-03-11T03:09:08.209Z,58.55
2023-03-11T03:14:12.480Z,58.58
2023-03-11T03:19:15.327Z,58.55
2023-03-11T03:24:18.631Z,58.73
2023-03-11T03:29:22.792Z,58.63
2023-03-11T03:34:26.212Z,58.87
2023-03-11T03:39:30.705Z,58.89
2023-03-11T03:44:36.060Z,59.09
2023-03-11T03:49:38.922Z,59.10
2023-03-11T03:54:42.276Z,59.17
2023-03-11T03:59:46.582Z,59.31
2023-03-11T04:04:49.826Z,59.26
2023-03-11T04:09:52.640Z,59.41
2023-03-11T04:14:56.826Z,59.53
2023-03-11T04:19:59.786Z,59.47
2023-03-11T04:25:02.869Z,59.62
2023-03-11T04:30:10.760Z,59.60
2023-03-11T04:35:13.613Z,59.68
2023-03-11T04:40:17.068Z,59.60
2023-03-11T04:45:22.071Z,59.79
2023-03-11T04:50:26.497Z,59.83
2023-03-11T04:55:30.214Z,59.99
2023-03-11T05:00:34.575Z,60.23
2023-03-11T05:05:46.015Z,60.05
2023-03-11T05:10:49.256Z,60.14
2023-03-11T05:15:53.407Z,60.32
2023-03-11T05:20:56.660Z,60.33
2023-03-11T05:26:02.791Z,60.53
2023-03-11T05:31:13.591Z,60.46
2023-03-11T05:36:17.296Z,60.68
2023-03-11T05:41:21.599Z,60.69
2023-03-11T05:46:25.965Z,60.64
2023-03-11T05:51:29.411Z,60.80
2023-03-11T05:56:32.517Z,60.96
2023-03-11T06:01:37.405Z,61.14
2023-03-11T06:06:41.175Z,61.05
2023-03-11T06:11:44.309Z,60.99
2023-03-11T06:16:49.432Z,61.09
2023-03-11T06:21:54.165Z,61.25
2023-03-11T06:26:57.056Z,61.22
2023-03-11T06:32:03.726Z,61.26
2023-03-11T06:37:06.785Z,61.25
2023-03-11T06:42:11.630Z,61.21
2023-03-11T06:47:16.218Z,61.39
2023-03-11T06:52:19.704Z,61.62
2023-03-11T06:57:22.623Z,61.67
2023-03-11T07:02:28.643Z,61.71
2023-03-11T07:07:32.153Z,61.76
2023-03-11T07:12:36.532Z,61.66
2023-03-11T07:17:40.758Z,61.75
2023-03-11T07:22:44.330Z,61.77
2023-03-11T07:27:47.045Z,61.89
2023-03-11T07:32:51.245Z,61.82
2023-03-11T07:37:53.962Z,61.92
2023-03-11T07:42:56.677Z,61.83
2023-03-11T07:48:00.760Z,61.91
2023-03-11T07:53:03.509Z,62.03
2023-03-11T07:58:06.343Z,62.28
2023-03-11T08:03:10.417Z,62.36
2023-03-11T08:08:13.284Z,61.09
2023-03-11T08:13:16.295Z,58.94
2023-03-11T08:18:20.465Z,46.42
2023-03-11T08:23:23.272Z,46.62
2023-03-11T08:28:26.265Z,49.73
2023-03-11T08:33:30.679Z,50.06
2023-03-11T08:38:33.573Z,51.16
2023-03-11T08:43:36.707Z,51.90
2023-03-11T08:48:40.773Z,52.92
2023-03-11T08:53:43.650Z,53.73
2023-03-11T08:58:46.917Z,54.25
2023-03-11T09:03:50.989Z,54.79
2023-03-11T09:08:53.683Z,54.96
2023-03-11T09:13:56.506Z,55.31
2023-03-11T09:19:03.867Z,55.36
2023-03-11T09:24:07.413Z,55.34
2023-03-11T09:29:10.256Z,55.49
2023-03-11T09:34:16.199Z,55.51
2023-03-11T09:39:19.008Z,55.55
2023-03-11T09:44:27.646Z,55.32
2023-03-11T09:49:41.506Z,55.56
2023-03-11T09:54:47.801Z,55.60
2023-03-11T09:59:51.398Z,55.67
2023-03-11T10:05:00.179Z,55.50
2023-03-11T10:10:03.727Z,55.80
2023-03-11T10:15:19.994Z,55.86
2023-03-11T10:20:28.968Z,56.17
2023-03-11T10:25:43.267Z,56.46
2023-03-11T10:30:49.054Z,56.32
2023-03-11T10:35:55.996Z,55.76
2023-03-11T10:41:04.151Z,55.78
2023-03-11T10:46:16.389Z,55.93
2023-03-11T10:51:23.573Z,55.96
2023-03-11T10:56:31.739Z,52.97
2023-03-11T11:01:35.098Z,53.61
2023-03-11T11:06:39.156Z,54.06
2023-03-11T11:11:42.054Z,54.31
2023-03-11T11:16:46.047Z,54.45
2023-03-11T11:21:52.341Z,54.71
2023-03-11T11:27:05.050Z,55.03
2023-03-11T11:32:20.113Z,55.34
2023-03-11T11:37:26.768Z,55.47
2023-03-11T11:42:32.276Z,55.89
2023-03-11T11:47:36.869Z,56.28
2023-03-11T11:52:48.317Z,57.09
2023-03-11T11:57:52.417Z,57.18
2023-03-11T12:03:13.606Z,57.25
2023-03-11T12:08:22.829Z,57.05
2023-03-11T12:13:51.452Z,57.14
2023-03-11T12:18:58.938Z,57.19
2023-03-11T12:24:20.784Z,57.37
2023-03-11T12:29:28.574Z,57.47
2023-03-11T12:34:35.245Z,57.24
2023-03-11T12:39:39.402Z,57.47
2023-03-11T12:44:42.428Z,57.43
2023-03-11T12:49:46.816Z,57.20
2023-03-11T12:55:32.601Z,57.26
2023-03-11T13:00:53.699Z,57.38
2023-03-11T13:06:04.585Z,57.27
2023-03-11T13:11:42.744Z,57.34
2023-03-11T13:16:46.633Z,57.64
2023-03-11T13:21:49.357Z,57.85
2023-03-11T13:27:04.880Z,58.05
2023-03-11T13:32:25.932Z,58.15
2023-03-11T13:37:43.488Z,58.09
2023-03-11T13:42:50.820Z,58.08
2023-03-11T13:47:57.390Z,57.98
2023-03-11T13:53:04.530Z,57.87
2023-03-11T13:58:20.913Z,57.88
2023-03-11T14:03:25.529Z,57.85
2023-03-11T14:08:30.015Z,57.83
2023-03-11T14:13:39.624Z,57.25
2023-03-11T14:18:44.325Z,57.26
2023-03-11T14:23:49.646Z,57.33
2023-03-11T14:28:56.345Z,57.48
2023-03-11T14:34:04.291Z,57.72
2023-03-11T14:39:07.057Z,57.27
2023-03-11T14:44:13.079Z,56.74
2023-03-11T14:49:21.217Z,56.30
2023-03-11T14:54:27.534Z,56.15
2023-03-11T14:59:33.882Z,55.84
2023-03-11T15:04:44.159Z,55.43
2023-03-11T15:09:47.966Z,54.88
2023-03-11T15:14:52.926Z,54.52
2023-03-11T15:19:56.182Z,54.48
2023-03-11T15:25:01.023Z,54.18
2023-03-11T15:30:18.607Z,53.66
2023-03-11T15:35:24.090Z,52.69
2023-03-11T15:40:44.308Z,51.27
2023-03-11T15:45:49.859Z,50.40
2023-03-11T15:50:54.818Z,50.54
2023-03-11T15:56:07.259Z,51.10
2023-03-11T16:01:12.185Z,51.44
2023-03-11T16:06:14.859Z,51.46
2023-03-11T16:11:18.679Z,51.67
2023-03-11T16:16:23.105Z,52.01
2023-03-11T16:21:33.354Z,52.00
2023-03-11T16:26:36.673Z,52.19
2023-03-11T16:31:40.700Z,52.34
2023-03-11T16:36:43.401Z,52.61
2023-03-11T16:41:46.187Z,52.76
2023-03-11T16:46:50.453Z,52.98
2023-03-11T16:51:53.296Z,53.49
2023-03-11T16:56:55.981Z,54.01
2023-03-11T17:02:00.110Z,54.15
2023-03-11T17:07:02.863Z,54.28
2023-03-11T17:12:06.331Z,54.60
2023-03-11T17:17:10.536Z,54.90
2023-03-11T17:22:14.582Z,55.51
2023-03-11T17:27:17.409Z,55.89
2023-03-11T17:32:21.564Z,55.82
2023-03-11T17:37:24.475Z,56.22
2023-03-11T17:42:27.392Z,55.97
2023-03-11T17:47:33.055Z,56.05
2023-03-11T17:52:36.026Z,55.87
2023-03-11T17:57:45.366Z,56.03
2023-03-11T18:02:51.201Z,55.94
2023-03-11T18:07:53.878Z,55.92
2023-03-11T18:12:56.705Z,56.14
2023-03-11T18:18:00.753Z,56.02
2023-03-11T18:23:03.509Z,56.19
2023-03-11T18:28:06.229Z,55.99
2023-03-11T18:33:10.404Z,56.15
2023-03-11T18:38:13.102Z,56.02
2023-03-11T18:43:15.787Z,56.20
2023-03-11T18:48:19.895Z,56.20
2023-03-11T18:53:24.817Z,56.15
2023-03-11T18:58:27.516Z,56.41
2023-03-11T19:03:31.651Z,56.45
2023-03-11T19:08:34.463Z,56.42
2023-03-11T19:13:46.746Z,56.22
2023-03-11T19:18:53.726Z,56.29
2023-03-11T19:23:59.899Z,56.65
2023-03-11T19:29:02.671Z,56.85
2023-03-11T19:34:06.780Z,57.03
2023-03-11T19:39:09.807Z,57.09
2023-03-11T19:44:12.643Z,57.22
2023-03-11T19:49:16.930Z,57.33
2023-03-11T19:54:20.230Z,57.21
2023-03-11T19:59:22.906Z,57.22
2023-03-11T20:04:27.380Z,57.33
2023-03-11T20:09:32.681Z,57.28
2023-03-11T20:14:35.464Z,57.44
2023-03-11T20:19:39.581Z,57.33
2023-03-11T20:24:42.320Z,57.45
2023-03-11T20:29:45.134Z,57.42
2023-03-11T20:34:49.380Z,57.37
2023-03-11T20:39:52.461Z,57.49
2023-03-11T20:44:55.566Z,57.41
2023-03-11T20:49:59.794Z,57.43
2023-03-11T20:55:02.705Z,57.33
2023-03-11T21:00:09.934Z,57.46
2023-03-11T21:05:14.079Z,57.11
2023-03-11T21:10:18.363Z,57.28
2023-03-11T21:15:21.684Z,57.21
2023-03-11T21:20:25.820Z,56.00
2023-03-11T21:25:30.374Z,56.66
2023-03-11T21:30:33.160Z,57.04
2023-03-11T21:35:37.545Z,57.09
2023-03-11T21:40:40.508Z,57.05
2023-03-11T21:45:44.095Z,57.25
2023-03-11T21:50:48.589Z,57.35
2023-03-11T21:55:51.831Z,57.34
2023-03-11T22:00:54.835Z,57.58
2023-03-11T22:05:59.993Z,57.25
2023-03-11T22:11:03.459Z,57.16
2023-03-11T22:16:07.682Z,57.01
2023-03-11T22:21:15.167Z,57.09
2023-03-11T22:26:17.947Z,57.19
2023-03-11T22:31:20.710Z,57.12
2023-03-11T22:36:24.870Z,57.06
2023-03-11T22:41:27.615Z,57.16
2023-03-11T22:46:30.737Z,57.12
2023-03-11T22:51:34.854Z,56.98
2023-03-11T22:56:37.655Z,57.34
2023-03-11T23:01:40.334Z,57.24
2023-03-11T23:06:44.397Z,57.33
2023-03-11T23:11:47.223Z,57.24
2023-03-11T23:16:49.994Z,57.42
2023-03-11T23:21:54.059Z,57.44
2023-03-11T23:26:56.739Z,57.59
2023-03-11T23:31:59.475Z,57.53
2023-03-11T23:37:05.399Z,57.74
2023-03-11T23:42:22.628Z,57.74
2023-03-11T23:47:27.558Z,57.83
2023-03-11T23:52:31.704Z,57.87
2023-03-11T23:57:35.587Z,57.99
